sensor_id;sensor_type;location;lat;lon;timestamp;P1;durP1;ratioP1;P2;durP2;ratioP2
71629;SDS011;59479;51.902;8.212;2024-02-26T00:01:48;3.30;;;1.65;;
71629;SDS011;59479;51.902;8.212;2024-02-26T00:04:14;3.70;;;2.00;;
71629;SDS011;59479;51.902;8.212;2024-02-26T00:06:39;4.83;;;1.80;;
71629;SDS011;59479;51.902;8.212;2024-02-26T00:09:08;4.70;;;1.88;;
71629;SDS011;59479;51.902;8.212;2024-02-26T00:11:37;5.30;;;2.23;;
71629;SDS011;59479;51.902;8.212;2024-02-26T00:14:02;4.68;;;1.90;;
71629;SDS011;59479;51.902;8.212;2024-02-26T00:16:28;4.10;;;1.70;;
71629;SDS011;59479;51.902;8.212;2024-02-26T00:18:54;5.87;;;2.00;;
71629;SDS011;59479;51.902;8.212;2024-02-26T00:21:19;3.53;;;1.90;;
71629;SDS011;59479;51.902;8.212;2024-02-26T00:23:44;3.65;;;2.15;;
71629;SDS011;59479;51.902;8.212;2024-02-26T00:26:10;3.63;;;1.60;;
71629;SDS011;59479;51.902;8.212;2024-02-26T00:28:36;3.50;;;2.27;;
71629;SDS011;59479;51.902;8.212;2024-02-26T00:31:01;5.45;;;1.83;;
71629;SDS011;59479;51.902;8.212;2024-02-26T00:33:27;4.40;;;1.60;;
71629;SDS011;59479;51.902;8.212;2024-02-26T00:35:52;3.50;;;1.60;;
71629;SDS011;59479;51.902;8.212;2024-02-26T00:38:18;4.55;;;1.95;;
71629;SDS011;59479;51.902;8.212;2024-02-26T00:40:43;4.77;;;1.80;;
71629;SDS011;59479;51.902;8.212;2024-02-26T00:43:09;3.47;;;1.50;;
71629;SDS011;59479;51.902;8.212;2024-02-26T00:45:34;3.10;;;1.50;;
71629;SDS011;59479;51.902;8.212;2024-02-26T00:48:00;5.70;;;1.87;;
71629;SDS011;59479;51.902;8.212;2024-02-26T00:50:29;3.50;;;1.92;;
71629;SDS011;59479;51.902;8.212;2024-02-26T00:52:55;4.73;;;1.90;;
71629;SDS011;59479;51.902;8.212;2024-02-26T00:55:20;6.43;;;2.42;;
71629;SDS011;59479;51.902;8.212;2024-02-26T00:57:45;6.73;;;2.23;;
71629;SDS011;59479;51.902;8.212;2024-02-26T01:00:11;5.07;;;2.43;;
71629;SDS011;59479;51.902;8.212;2024-02-26T01:02:37;3.90;;;2.08;;
71629;SDS011;59479;51.902;8.212;2024-02-26T01:05:03;3.93;;;2.10;;
71629;SDS011;59479;51.902;8.212;2024-02-26T01:07:31;4.45;;;2.10;;
71629;SDS011;59479;51.902;8.212;2024-02-26T01:10:00;5.25;;;2.00;;
71629;SDS011;59479;51.902;8.212;2024-02-26T01:12:29;5.88;;;1.95;;
71629;SDS011;59479;51.902;8.212;2024-02-26T01:14:54;4.53;;;2.10;;
71629;SDS011;59479;51.902;8.212;2024-02-26T01:17:20;4.30;;;2.73;;
71629;SDS011;59479;51.902;8.212;2024-02-26T01:19:45;4.90;;;2.45;;
71629;SDS011;59479;51.902;8.212;2024-02-26T01:22:11;5.72;;;2.70;;
71629;SDS011;59479;51.902;8.212;2024-02-26T01:24:36;3.87;;;2.17;;
71629;SDS011;59479;51.902;8.212;2024-02-26T01:27:01;4.17;;;2.20;;
71629;SDS011;59479;51.902;8.212;2024-02-26T01:29:27;5.07;;;2.07;;
71629;SDS011;59479;51.902;8.212;2024-02-26T01:31:52;3.83;;;2.20;;
71629;SDS011;59479;51.902;8.212;2024-02-26T01:34:17;4.70;;;2.50;;
71629;SDS011;59479;51.902;8.212;2024-02-26T01:36:43;3.80;;;2.30;;
71629;SDS011;59479;51.902;8.212;2024-02-26T01:39:09;4.07;;;2.13;;
71629;SDS011;59479;51.902;8.212;2024-02-26T01:41:37;3.85;;;2.10;;
71629;SDS011;59479;51.902;8.212;2024-02-26T01:44:06;4.43;;;1.92;;
71629;SDS011;59479;51.902;8.212;2024-02-26T01:46:31;4.73;;;2.33;;
71629;SDS011;59479;51.902;8.212;2024-02-26T01:48:59;7.43;;;2.10;;
71629;SDS011;59479;51.902;8.212;2024-02-26T01:51:25;4.00;;;1.75;;
71629;SDS011;59479;51.902;8.212;2024-02-26T01:53:50;4.75;;;2.22;;
71629;SDS011;59479;51.902;8.212;2024-02-26T01:56:16;4.57;;;2.53;;
71629;SDS011;59479;51.902;8.212;2024-02-26T01:58:42;4.05;;;1.60;;
71629;SDS011;59479;51.902;8.212;2024-02-26T02:01:08;5.68;;;1.95;;
71629;SDS011;59479;51.902;8.212;2024-02-26T02:03:34;4.63;;;2.00;;
71629;SDS011;59479;51.902;8.212;2024-02-26T02:06:00;4.22;;;1.88;;
71629;SDS011;59479;51.902;8.212;2024-02-26T02:08:27;4.43;;;1.73;;
71629;SDS011;59479;51.902;8.212;2024-02-26T02:10:52;3.75;;;1.90;;
71629;SDS011;59479;51.902;8.212;2024-02-26T02:13:18;3.47;;;1.92;;
71629;SDS011;59479;51.902;8.212;2024-02-26T02:15:43;2.90;;;1.60;;
71629;SDS011;59479;51.902;8.212;2024-02-26T02:18:08;3.87;;;1.93;;
71629;SDS011;59479;51.902;8.212;2024-02-26T02:20:34;3.50;;;2.00;;
71629;SDS011;59479;51.902;8.212;2024-02-26T02:23:00;3.28;;;1.55;;
71629;SDS011;59479;51.902;8.212;2024-02-26T02:25:26;3.15;;;1.67;;
71629;SDS011;59479;51.902;8.212;2024-02-26T02:27:51;3.00;;;1.38;;
71629;SDS011;59479;51.902;8.212;2024-02-26T02:30:19;4.00;;;1.80;;
71629;SDS011;59479;51.902;8.212;2024-02-26T02:32:45;3.22;;;1.40;;
71629;SDS011;59479;51.902;8.212;2024-02-26T02:35:10;15.27;;;3.53;;
71629;SDS011;59479;51.902;8.212;2024-02-26T02:37:36;12.60;;;2.85;;
71629;SDS011;59479;51.902;8.212;2024-02-26T02:40:02;15.70;;;3.65;;
71629;SDS011;59479;51.902;8.212;2024-02-26T02:42:28;24.73;;;4.93;;
71629;SDS011;59479;51.902;8.212;2024-02-26T02:44:53;13.23;;;3.10;;
71629;SDS011;59479;51.902;8.212;2024-02-26T02:47:18;23.20;;;4.60;;
71629;SDS011;59479;51.902;8.212;2024-02-26T02:49:44;14.07;;;3.97;;
71629;SDS011;59479;51.902;8.212;2024-02-26T02:52:09;12.23;;;3.20;;
71629;SDS011;59479;51.902;8.212;2024-02-26T02:54:34;14.60;;;3.37;;
71629;SDS011;59479;51.902;8.212;2024-02-26T02:57:01;15.85;;;3.60;;
71629;SDS011;59479;51.902;8.212;2024-02-26T02:59:27;21.10;;;4.40;;
71629;SDS011;59479;51.902;8.212;2024-02-26T03:01:53;12.70;;;2.90;;
71629;SDS011;59479;51.902;8.212;2024-02-26T03:04:18;19.43;;;3.93;;
71629;SDS011;59479;51.902;8.212;2024-02-26T03:06:43;13.57;;;2.93;;
71629;SDS011;59479;51.902;8.212;2024-02-26T03:09:09;17.75;;;3.58;;
71629;SDS011;59479;51.902;8.212;2024-02-26T03:11:34;21.95;;;4.10;;
71629;SDS011;59479;51.902;8.212;2024-02-26T03:13:59;12.13;;;2.83;;
71629;SDS011;59479;51.902;8.212;2024-02-26T03:16:25;18.93;;;4.13;;
71629;SDS011;59479;51.902;8.212;2024-02-26T03:18:50;12.40;;;2.90;;
71629;SDS011;59479;51.902;8.212;2024-02-26T03:21:16;14.27;;;3.17;;
71629;SDS011;59479;51.902;8.212;2024-02-26T03:23:41;18.73;;;3.60;;
71629;SDS011;59479;51.902;8.212;2024-02-26T03:26:06;13.83;;;2.93;;
71629;SDS011;59479;51.902;8.212;2024-02-26T03:28:33;23.53;;;4.70;;
71629;SDS011;59479;51.902;8.212;2024-02-26T03:30:59;18.73;;;4.00;;
71629;SDS011;59479;51.902;8.212;2024-02-26T03:33:26;23.87;;;4.60;;
71629;SDS011;59479;51.902;8.212;2024-02-26T03:35:51;15.43;;;3.17;;
71629;SDS011;59479;51.902;8.212;2024-02-26T03:38:16;15.40;;;3.15;;
71629;SDS011;59479;51.902;8.212;2024-02-26T03:40:41;14.10;;;3.10;;
71629;SDS011;59479;51.902;8.212;2024-02-26T03:43:07;15.43;;;2.90;;
71629;SDS011;59479;51.902;8.212;2024-02-26T03:45:33;16.20;;;3.63;;
71629;SDS011;59479;51.902;8.212;2024-02-26T03:47:58;10.60;;;2.60;;
71629;SDS011;59479;51.902;8.212;2024-02-26T03:50:24;20.03;;;3.90;;
71629;SDS011;59479;51.902;8.212;2024-02-26T03:52:49;19.73;;;3.83;;
71629;SDS011;59479;51.902;8.212;2024-02-26T03:55:14;14.23;;;3.20;;
71629;SDS011;59479;51.902;8.212;2024-02-26T03:57:40;18.63;;;4.10;;
71629;SDS011;59479;51.902;8.212;2024-02-26T04:00:05;16.63;;;3.40;;
71629;SDS011;59479;51.902;8.212;2024-02-26T04:02:31;23.65;;;4.55;;
71629;SDS011;59479;51.902;8.212;2024-02-26T04:04:57;16.90;;;3.50;;
71629;SDS011;59479;51.902;8.212;2024-02-26T04:07:22;21.67;;;4.55;;
71629;SDS011;59479;51.902;8.212;2024-02-26T04:09:47;15.00;;;3.42;;
71629;SDS011;59479;51.902;8.212;2024-02-26T04:12:13;17.33;;;3.50;;
71629;SDS011;59479;51.902;8.212;2024-02-26T04:14:38;21.40;;;4.90;;
71629;SDS011;59479;51.902;8.212;2024-02-26T04:17:04;13.20;;;3.10;;
71629;SDS011;59479;51.902;8.212;2024-02-26T04:19:29;20.93;;;5.00;;
71629;SDS011;59479;51.902;8.212;2024-02-26T04:21:54;16.37;;;3.83;;
71629;SDS011;59479;51.902;8.212;2024-02-26T04:24:20;9.75;;;2.50;;
71629;SDS011;59479;51.902;8.212;2024-02-26T04:26:45;14.73;;;3.40;;
71629;SDS011;59479;51.902;8.212;2024-02-26T04:29:10;13.63;;;2.93;;
71629;SDS011;59479;51.902;8.212;2024-02-26T04:31:37;22.67;;;4.97;;
71629;SDS011;59479;51.902;8.212;2024-02-26T04:34:03;13.82;;;3.40;;
71629;SDS011;59479;51.902;8.212;2024-02-26T04:36:28;23.27;;;4.27;;
71629;SDS011;59479;51.902;8.212;2024-02-26T04:38:53;16.50;;;3.43;;
71629;SDS011;59479;51.902;8.212;2024-02-26T04:41:21;15.07;;;3.20;;
71629;SDS011;59479;51.902;8.212;2024-02-26T04:43:47;12.00;;;2.87;;
71629;SDS011;59479;51.902;8.212;2024-02-26T04:46:12;12.63;;;3.20;;
71629;SDS011;59479;51.902;8.212;2024-02-26T04:48:37;13.87;;;3.80;;
71629;SDS011;59479;51.902;8.212;2024-02-26T04:51:03;15.50;;;3.33;;
71629;SDS011;59479;51.902;8.212;2024-02-26T04:53:29;27.70;;;5.50;;
71629;SDS011;59479;51.902;8.212;2024-02-26T04:55:54;13.50;;;3.27;;
71629;SDS011;59479;51.902;8.212;2024-02-26T04:58:20;13.67;;;2.93;;
71629;SDS011;59479;51.902;8.212;2024-02-26T05:00:45;14.75;;;3.08;;
71629;SDS011;59479;51.902;8.212;2024-02-26T05:03:10;12.23;;;3.03;;
71629;SDS011;59479;51.902;8.212;2024-02-26T05:05:40;21.90;;;4.60;;
71629;SDS011;59479;51.902;8.212;2024-02-26T05:08:09;13.98;;;3.58;;
71629;SDS011;59479;51.902;8.212;2024-02-26T05:10:34;20.70;;;3.90;;
71629;SDS011;59479;51.902;8.212;2024-02-26T05:13:04;13.05;;;3.05;;
71629;SDS011;59479;51.902;8.212;2024-02-26T05:15:29;22.45;;;5.03;;
71629;SDS011;59479;51.902;8.212;2024-02-26T05:17:54;15.00;;;3.10;;
71629;SDS011;59479;51.902;8.212;2024-02-26T05:20:20;15.10;;;3.63;;
71629;SDS011;59479;51.902;8.212;2024-02-26T05:22:45;15.03;;;3.43;;
71629;SDS011;59479;51.902;8.212;2024-02-26T05:25:10;11.53;;;2.70;;
71629;SDS011;59479;51.902;8.212;2024-02-26T05:27:36;19.33;;;3.80;;
71629;SDS011;59479;51.902;8.212;2024-02-26T05:30:01;11.83;;;2.57;;
71629;SDS011;59479;51.902;8.212;2024-02-26T05:32:27;16.10;;;3.33;;
71629;SDS011;59479;51.902;8.212;2024-02-26T05:34:52;11.73;;;2.40;;
71629;SDS011;59479;51.902;8.212;2024-02-26T05:37:18;10.70;;;2.60;;
71629;SDS011;59479;51.902;8.212;2024-02-26T05:39:43;18.83;;;3.57;;
71629;SDS011;59479;51.902;8.212;2024-02-26T05:42:08;13.47;;;3.20;;
71629;SDS011;59479;51.902;8.212;2024-02-26T05:44:34;14.87;;;3.00;;
71629;SDS011;59479;51.902;8.212;2024-02-26T05:46:59;16.27;;;2.83;;
71629;SDS011;59479;51.902;8.212;2024-02-26T05:49:24;12.03;;;2.50;;
71629;SDS011;59479;51.902;8.212;2024-02-26T05:51:50;13.77;;;2.97;;
71629;SDS011;59479;51.902;8.212;2024-02-26T05:54:15;11.17;;;2.67;;
71629;SDS011;59479;51.902;8.212;2024-02-26T05:56:40;16.47;;;3.43;;
71629;SDS011;59479;51.902;8.212;2024-02-26T05:59:06;12.33;;;2.70;;
71629;SDS011;59479;51.902;8.212;2024-02-26T06:01:31;20.20;;;4.27;;
71629;SDS011;59479;51.902;8.212;2024-02-26T06:03:58;13.15;;;3.17;;
71629;SDS011;59479;51.902;8.212;2024-02-26T06:06:23;10.43;;;2.50;;
71629;SDS011;59479;51.902;8.212;2024-02-26T06:08:48;11.93;;;2.40;;
71629;SDS011;59479;51.902;8.212;2024-02-26T06:11:14;14.02;;;3.28;;
71629;SDS011;59479;51.902;8.212;2024-02-26T06:13:40;18.30;;;4.00;;
71629;SDS011;59479;51.902;8.212;2024-02-26T06:16:07;3.88;;;1.23;;
71629;SDS011;59479;51.902;8.212;2024-02-26T06:18:33;4.83;;;1.70;;
71629;SDS011;59479;51.902;8.212;2024-02-26T06:20:58;3.83;;;1.10;;
71629;SDS011;59479;51.902;8.212;2024-02-26T06:23:24;6.57;;;1.80;;
71629;SDS011;59479;51.902;8.212;2024-02-26T06:25:50;4.93;;;1.50;;
71629;SDS011;59479;51.902;8.212;2024-02-26T06:28:16;4.77;;;1.70;;
71629;SDS011;59479;51.902;8.212;2024-02-26T06:30:41;6.10;;;1.85;;
71629;SDS011;59479;51.902;8.212;2024-02-26T06:33:06;4.53;;;1.83;;
71629;SDS011;59479;51.902;8.212;2024-02-26T06:35:32;5.63;;;1.67;;
71629;SDS011;59479;51.902;8.212;2024-02-26T06:37:58;6.47;;;1.70;;
71629;SDS011;59479;51.902;8.212;2024-02-26T06:40:23;4.60;;;1.40;;
71629;SDS011;59479;51.902;8.212;2024-02-26T06:42:49;5.47;;;1.63;;
71629;SDS011;59479;51.902;8.212;2024-02-26T06:45:15;5.30;;;1.83;;
71629;SDS011;59479;51.902;8.212;2024-02-26T06:47:41;5.73;;;1.80;;
71629;SDS011;59479;51.902;8.212;2024-02-26T06:50:08;4.50;;;1.77;;
71629;SDS011;59479;51.902;8.212;2024-02-26T06:52:34;4.65;;;1.85;;
71629;SDS011;59479;51.902;8.212;2024-02-26T06:54:59;2.80;;;1.30;;
71629;SDS011;59479;51.902;8.212;2024-02-26T06:57:24;3.30;;;1.23;;
71629;SDS011;59479;51.902;8.212;2024-02-26T06:59:50;3.40;;;1.30;;
71629;SDS011;59479;51.902;8.212;2024-02-26T07:02:16;4.13;;;1.30;;
71629;SDS011;59479;51.902;8.212;2024-02-26T07:04:42;3.07;;;1.40;;
71629;SDS011;59479;51.902;8.212;2024-02-26T07:07:13;2.88;;;1.27;;
71629;SDS011;59479;51.902;8.212;2024-02-26T07:09:57;3.63;;;1.10;;
71629;SDS011;59479;51.902;8.212;2024-02-26T07:12:25;3.15;;;1.30;;
71629;SDS011;59479;51.902;8.212;2024-02-26T07:14:51;3.20;;;1.60;;
71629;SDS011;59479;51.902;8.212;2024-02-26T07:17:17;4.22;;;1.60;;
71629;SDS011;59479;51.902;8.212;2024-02-26T07:19:42;4.93;;;1.80;;
71629;SDS011;59479;51.902;8.212;2024-02-26T07:22:08;4.60;;;1.80;;
71629;SDS011;59479;51.902;8.212;2024-02-26T07:24:33;4.47;;;1.43;;
71629;SDS011;59479;51.902;8.212;2024-02-26T07:26:58;5.05;;;1.88;;
71629;SDS011;59479;51.902;8.212;2024-02-26T07:29:24;4.27;;;1.30;;
71629;SDS011;59479;51.902;8.212;2024-02-26T07:31:49;5.50;;;2.03;;
71629;SDS011;59479;51.902;8.212;2024-02-26T07:34:15;4.00;;;1.40;;
71629;SDS011;59479;51.902;8.212;2024-02-26T07:36:40;5.87;;;2.20;;
71629;SDS011;59479;51.902;8.212;2024-02-26T07:39:05;7.63;;;2.27;;
71629;SDS011;59479;51.902;8.212;2024-02-26T07:41:31;5.40;;;1.87;;
71629;SDS011;59479;51.902;8.212;2024-02-26T07:43:56;5.40;;;2.08;;
71629;SDS011;59479;51.902;8.212;2024-02-26T07:46:21;6.28;;;2.17;;
71629;SDS011;59479;51.902;8.212;2024-02-26T07:48:47;6.70;;;2.43;;
71629;SDS011;59479;51.902;8.212;2024-02-26T07:51:13;7.37;;;2.23;;
71629;SDS011;59479;51.902;8.212;2024-02-26T07:53:42;6.05;;;2.10;;
71629;SDS011;59479;51.902;8.212;2024-02-26T07:56:08;7.77;;;2.67;;
71629;SDS011;59479;51.902;8.212;2024-02-26T07:58:34;6.50;;;2.30;;
71629;SDS011;59479;51.902;8.212;2024-02-26T08:00:59;7.97;;;2.57;;
71629;SDS011;59479;51.902;8.212;2024-02-26T08:03:24;7.70;;;2.00;;
71629;SDS011;59479;51.902;8.212;2024-02-26T08:05:50;5.13;;;1.88;;
71629;SDS011;59479;51.902;8.212;2024-02-26T08:08:16;4.60;;;2.17;;
71629;SDS011;59479;51.902;8.212;2024-02-26T08:10:41;5.10;;;2.25;;
71629;SDS011;59479;51.902;8.212;2024-02-26T08:13:07;5.37;;;2.20;;
71629;SDS011;59479;51.902;8.212;2024-02-26T08:15:32;5.93;;;2.03;;
71629;SDS011;59479;51.902;8.212;2024-02-26T08:18:02;5.30;;;2.05;;
71629;SDS011;59479;51.902;8.212;2024-02-26T08:20:29;5.63;;;2.10;;
71629;SDS011;59479;51.902;8.212;2024-02-26T08:22:54;5.35;;;2.30;;
71629;SDS011;59479;51.902;8.212;2024-02-26T08:25:20;5.45;;;1.88;;
71629;SDS011;59479;51.902;8.212;2024-02-26T08:27:45;5.37;;;2.30;;
71629;SDS011;59479;51.902;8.212;2024-02-26T08:30:12;4.72;;;1.58;;
71629;SDS011;59479;51.902;8.212;2024-02-26T08:32:41;4.63;;;2.35;;
71629;SDS011;59479;51.902;8.212;2024-02-26T08:35:07;3.63;;;1.77;;
71629;SDS011;59479;51.902;8.212;2024-02-26T08:37:33;3.75;;;1.73;;
71629;SDS011;59479;51.902;8.212;2024-02-26T08:39:58;3.90;;;1.97;;
71629;SDS011;59479;51.902;8.212;2024-02-26T08:42:23;4.70;;;1.83;;
71629;SDS011;59479;51.902;8.212;2024-02-26T08:44:49;4.53;;;2.63;;
71629;SDS011;59479;51.902;8.212;2024-02-26T08:47:14;6.25;;;2.00;;
71629;SDS011;59479;51.902;8.212;2024-02-26T08:49:44;4.32;;;1.95;;
71629;SDS011;59479;51.902;8.212;2024-02-26T08:52:10;3.97;;;2.03;;
71629;SDS011;59479;51.902;8.212;2024-02-26T08:54:35;6.40;;;1.70;;
71629;SDS011;59479;51.902;8.212;2024-02-26T08:57:01;6.53;;;2.67;;
71629;SDS011;59479;51.902;8.212;2024-02-26T08:59:27;3.50;;;1.73;;
71629;SDS011;59479;51.902;8.212;2024-02-26T09:01:53;6.07;;;2.20;;
71629;SDS011;59479;51.902;8.212;2024-02-26T09:04:19;4.60;;;2.27;;
71629;SDS011;59479;51.902;8.212;2024-02-26T09:06:44;5.60;;;1.67;;
71629;SDS011;59479;51.902;8.212;2024-02-26T09:09:10;4.00;;;1.93;;
71629;SDS011;59479;51.902;8.212;2024-02-26T09:11:36;4.07;;;1.52;;
71629;SDS011;59479;51.902;8.212;2024-02-26T09:14:01;4.07;;;2.20;;
71629;SDS011;59479;51.902;8.212;2024-02-26T09:16:28;3.58;;;1.92;;
71629;SDS011;59479;51.902;8.212;2024-02-26T09:18:54;5.25;;;2.60;;
71629;SDS011;59479;51.902;8.212;2024-02-26T09:21:20;5.27;;;2.00;;
71629;SDS011;59479;51.902;8.212;2024-02-26T09:23:51;5.68;;;2.35;;
71629;SDS011;59479;51.902;8.212;2024-02-26T09:26:17;7.00;;;2.20;;
71629;SDS011;59479;51.902;8.212;2024-02-26T09:28:46;4.55;;;2.38;;
71629;SDS011;59479;51.902;8.212;2024-02-26T09:31:12;3.97;;;2.17;;
71629;SDS011;59479;51.902;8.212;2024-02-26T09:33:37;5.15;;;2.20;;
71629;SDS011;59479;51.902;8.212;2024-02-26T09:36:03;6.57;;;2.70;;
71629;SDS011;59479;51.902;8.212;2024-02-26T09:38:29;6.38;;;2.65;;
71629;SDS011;59479;51.902;8.212;2024-02-26T09:40:58;5.40;;;3.00;;
71629;SDS011;59479;51.902;8.212;2024-02-26T09:43:24;5.25;;;3.08;;
71629;SDS011;59479;51.902;8.212;2024-02-26T09:45:53;6.00;;;3.10;;
71629;SDS011;59479;51.902;8.212;2024-02-26T09:48:20;5.82;;;2.72;;
71629;SDS011;59479;51.902;8.212;2024-02-26T09:50:47;6.20;;;2.53;;
71629;SDS011;59479;51.902;8.212;2024-02-26T09:53:13;5.22;;;2.90;;
71629;SDS011;59479;51.902;8.212;2024-02-26T09:55:42;4.93;;;2.75;;
71629;SDS011;59479;51.902;8.212;2024-02-26T09:58:08;7.80;;;3.30;;
71629;SDS011;59479;51.902;8.212;2024-02-26T10:00:38;6.35;;;2.83;;
71629;SDS011;59479;51.902;8.212;2024-02-26T10:03:05;6.88;;;2.75;;
71629;SDS011;59479;51.902;8.212;2024-02-26T10:05:35;6.28;;;3.60;;
71629;SDS011;59479;51.902;8.212;2024-02-26T10:08:02;6.07;;;3.30;;
71629;SDS011;59479;51.902;8.212;2024-02-26T10:10:29;6.67;;;3.50;;
71629;SDS011;59479;51.902;8.212;2024-02-26T10:12:56;6.70;;;3.08;;
71629;SDS011;59479;51.902;8.212;2024-02-26T10:15:24;4.57;;;2.58;;
71629;SDS011;59479;51.902;8.212;2024-02-26T10:17:51;6.78;;;4.03;;
71629;SDS011;59479;51.902;8.212;2024-02-26T10:20:17;8.23;;;3.60;;
71629;SDS011;59479;51.902;8.212;2024-02-26T10:22:44;8.18;;;3.92;;
71629;SDS011;59479;51.902;8.212;2024-02-26T10:25:09;7.63;;;3.88;;
71629;SDS011;59479;51.902;8.212;2024-02-26T10:27:35;7.13;;;3.30;;
71629;SDS011;59479;51.902;8.212;2024-02-26T10:30:04;6.63;;;3.28;;
71629;SDS011;59479;51.902;8.212;2024-02-26T10:32:39;6.60;;;2.80;;
71629;SDS011;59479;51.902;8.212;2024-02-26T10:35:08;4.30;;;2.33;;
71629;SDS011;59479;51.902;8.212;2024-02-26T10:37:34;7.20;;;3.40;;
71629;SDS011;59479;51.902;8.212;2024-02-26T10:39:59;5.03;;;2.90;;
71629;SDS011;59479;51.902;8.212;2024-02-26T10:42:25;4.53;;;2.40;;
71629;SDS011;59479;51.902;8.212;2024-02-26T10:44:51;6.88;;;2.95;;
71629;SDS011;59479;51.902;8.212;2024-02-26T10:47:16;7.13;;;2.70;;
71629;SDS011;59479;51.902;8.212;2024-02-26T10:49:48;6.57;;;2.47;;
71629;SDS011;59479;51.902;8.212;2024-02-26T10:52:15;5.45;;;2.85;;
71629;SDS011;59479;51.902;8.212;2024-02-26T10:54:46;7.30;;;3.08;;
71629;SDS011;59479;51.902;8.212;2024-02-26T10:57:13;6.13;;;2.83;;
71629;SDS011;59479;51.902;8.212;2024-02-26T10:59:41;9.37;;;3.00;;
71629;SDS011;59479;51.902;8.212;2024-02-26T11:02:08;5.15;;;2.65;;
71629;SDS011;59479;51.902;8.212;2024-02-26T11:04:36;4.20;;;2.22;;
71629;SDS011;59479;51.902;8.212;2024-02-26T11:07:03;7.63;;;2.90;;
71629;SDS011;59479;51.902;8.212;2024-02-26T11:09:29;6.50;;;2.70;;
71629;SDS011;59479;51.902;8.212;2024-02-26T11:11:57;5.27;;;2.43;;
71629;SDS011;59479;51.902;8.212;2024-02-26T11:14:24;3.95;;;1.85;;
71629;SDS011;59479;51.902;8.212;2024-02-26T11:16:51;8.05;;;2.72;;
71629;SDS011;59479;51.902;8.212;2024-02-26T11:19:16;7.75;;;2.67;;
71629;SDS011;59479;51.902;8.212;2024-02-26T11:21:43;4.57;;;2.13;;
71629;SDS011;59479;51.902;8.212;2024-02-26T11:24:12;5.38;;;2.10;;
71629;SDS011;59479;51.902;8.212;2024-02-26T11:26:47;5.55;;;2.75;;
71629;SDS011;59479;51.902;8.212;2024-02-26T11:29:23;5.38;;;2.95;;
71629;SDS011;59479;51.902;8.212;2024-02-26T11:31:52;4.78;;;2.03;;
71629;SDS011;59479;51.902;8.212;2024-02-26T11:34:18;5.17;;;2.70;;
71629;SDS011;59479;51.902;8.212;2024-02-26T11:36:44;5.20;;;2.40;;
71629;SDS011;59479;51.902;8.212;2024-02-26T11:39:12;6.03;;;2.55;;
71629;SDS011;59479;51.902;8.212;2024-02-26T11:41:41;4.00;;;2.20;;
71629;SDS011;59479;51.902;8.212;2024-02-26T11:44:07;4.80;;;2.13;;
71629;SDS011;59479;51.902;8.212;2024-02-26T11:46:38;6.20;;;2.72;;
71629;SDS011;59479;51.902;8.212;2024-02-26T11:51:51;6.90;;;2.33;;
71629;SDS011;59479;51.902;8.212;2024-02-26T11:57:04;7.78;;;3.20;;
71629;SDS011;59479;51.902;8.212;2024-02-26T11:59:39;4.57;;;2.00;;
71629;SDS011;59479;51.902;8.212;2024-02-26T12:02:07;5.65;;;2.35;;
71629;SDS011;59479;51.902;8.212;2024-02-26T12:04:33;4.93;;;2.70;;
71629;SDS011;59479;51.902;8.212;2024-02-26T12:07:01;5.13;;;2.70;;
71629;SDS011;59479;51.902;8.212;2024-02-26T12:09:38;4.32;;;2.50;;
71629;SDS011;59479;51.902;8.212;2024-02-26T12:12:08;6.07;;;2.67;;
71629;SDS011;59479;51.902;8.212;2024-02-26T12:14:50;5.38;;;2.25;;
71629;SDS011;59479;51.902;8.212;2024-02-26T12:17:20;5.15;;;2.22;;
71629;SDS011;59479;51.902;8.212;2024-02-26T12:19:48;4.53;;;2.42;;
71629;SDS011;59479;51.902;8.212;2024-02-26T12:22:16;4.80;;;2.45;;
71629;SDS011;59479;51.902;8.212;2024-02-26T12:24:42;9.83;;;2.80;;
71629;SDS011;59479;51.902;8.212;2024-02-26T12:27:08;6.20;;;3.03;;
71629;SDS011;59479;51.902;8.212;2024-02-26T12:29:34;5.77;;;2.50;;
71629;SDS011;59479;51.902;8.212;2024-02-26T12:32:00;5.13;;;3.05;;
71629;SDS011;59479;51.902;8.212;2024-02-26T12:34:26;5.38;;;2.40;;
71629;SDS011;59479;51.902;8.212;2024-02-26T12:36:53;8.00;;;3.00;;
71629;SDS011;59479;51.902;8.212;2024-02-26T12:39:19;7.20;;;3.25;;
71629;SDS011;59479;51.902;8.212;2024-02-26T12:41:46;6.28;;;3.15;;
71629;SDS011;59479;51.902;8.212;2024-02-26T12:44:17;5.83;;;2.70;;
71629;SDS011;59479;51.902;8.212;2024-02-26T12:46:43;4.75;;;2.55;;
71629;SDS011;59479;51.902;8.212;2024-02-26T12:49:14;5.25;;;2.55;;
71629;SDS011;59479;51.902;8.212;2024-02-26T12:51:40;6.80;;;2.92;;
71629;SDS011;59479;51.902;8.212;2024-02-26T12:54:07;5.87;;;2.80;;
71629;SDS011;59479;51.902;8.212;2024-02-26T12:56:34;4.72;;;2.30;;
71629;SDS011;59479;51.902;8.212;2024-02-26T12:58:59;5.05;;;2.40;;
71629;SDS011;59479;51.902;8.212;2024-02-26T13:01:25;5.75;;;2.50;;
71629;SDS011;59479;51.902;8.212;2024-02-26T13:03:51;6.50;;;3.00;;
71629;SDS011;59479;51.902;8.212;2024-02-26T13:06:18;5.70;;;2.30;;
71629;SDS011;59479;51.902;8.212;2024-02-26T13:08:47;5.30;;;2.25;;
71629;SDS011;59479;51.902;8.212;2024-02-26T13:11:13;5.57;;;2.50;;
71629;SDS011;59479;51.902;8.212;2024-02-26T13:13:39;4.83;;;2.53;;
71629;SDS011;59479;51.902;8.212;2024-02-26T13:16:05;5.50;;;2.28;;
71629;SDS011;59479;51.902;8.212;2024-02-26T13:18:33;5.20;;;2.58;;
71629;SDS011;59479;51.902;8.212;2024-02-26T13:21:06;6.53;;;2.60;;
71629;SDS011;59479;51.902;8.212;2024-02-26T13:23:35;3.80;;;2.00;;
71629;SDS011;59479;51.902;8.212;2024-02-26T13:26:01;5.22;;;2.45;;
71629;SDS011;59479;51.902;8.212;2024-02-26T13:28:26;4.80;;;2.30;;
71629;SDS011;59479;51.902;8.212;2024-02-26T13:30:53;5.88;;;2.38;;
71629;SDS011;59479;51.902;8.212;2024-02-26T13:33:23;4.82;;;2.30;;
71629;SDS011;59479;51.902;8.212;2024-02-26T13:35:51;5.03;;;2.03;;
71629;SDS011;59479;51.902;8.212;2024-02-26T13:38:18;4.53;;;2.20;;
71629;SDS011;59479;51.902;8.212;2024-02-26T13:40:44;4.38;;;2.10;;
71629;SDS011;59479;51.902;8.212;2024-02-26T13:43:09;4.68;;;2.30;;
71629;SDS011;59479;51.902;8.212;2024-02-26T13:45:38;3.80;;;2.10;;
71629;SDS011;59479;51.902;8.212;2024-02-26T13:48:05;5.75;;;2.03;;
71629;SDS011;59479;51.902;8.212;2024-02-26T13:50:32;4.70;;;1.98;;
71629;SDS011;59479;51.902;8.212;2024-02-26T13:52:58;5.05;;;2.05;;
71629;SDS011;59479;51.902;8.212;2024-02-26T13:55:25;4.07;;;1.90;;
71629;SDS011;59479;51.902;8.212;2024-02-26T13:57:53;4.05;;;1.80;;
71629;SDS011;59479;51.902;8.212;2024-02-26T14:00:20;4.15;;;2.40;;
71629;SDS011;59479;51.902;8.212;2024-02-26T14:02:46;3.88;;;1.75;;
71629;SDS011;59479;51.902;8.212;2024-02-26T14:05:11;4.67;;;2.00;;
71629;SDS011;59479;51.902;8.212;2024-02-26T14:07:37;4.13;;;1.98;;
71629;SDS011;59479;51.902;8.212;2024-02-26T14:10:04;4.25;;;1.70;;
71629;SDS011;59479;51.902;8.212;2024-02-26T14:12:30;4.57;;;2.00;;
71629;SDS011;59479;51.902;8.212;2024-02-26T14:14:56;4.75;;;2.08;;
71629;SDS011;59479;51.902;8.212;2024-02-26T14:17:24;3.42;;;1.80;;
71629;SDS011;59479;51.902;8.212;2024-02-26T14:19:52;3.83;;;1.90;;
71629;SDS011;59479;51.902;8.212;2024-02-26T14:22:18;4.25;;;1.90;;
71629;SDS011;59479;51.902;8.212;2024-02-26T14:24:43;3.80;;;1.90;;
71629;SDS011;59479;51.902;8.212;2024-02-26T14:27:12;3.78;;;1.80;;
71629;SDS011;59479;51.902;8.212;2024-02-26T14:29:43;4.00;;;1.92;;
71629;SDS011;59479;51.902;8.212;2024-02-26T14:32:11;3.72;;;1.70;;
71629;SDS011;59479;51.902;8.212;2024-02-26T14:34:45;3.83;;;1.70;;
71629;SDS011;59479;51.902;8.212;2024-02-26T14:37:11;4.30;;;2.10;;
71629;SDS011;59479;51.902;8.212;2024-02-26T14:39:46;4.00;;;1.83;;
71629;SDS011;59479;51.902;8.212;2024-02-26T14:42:13;6.60;;;2.00;;
71629;SDS011;59479;51.902;8.212;2024-02-26T14:45:02;4.28;;;1.88;;
71629;SDS011;59479;51.902;8.212;2024-02-26T14:47:31;5.30;;;1.60;;